Time;durP1;ratioP1;P1;durP2;ratioP2;P2;SDS_P1;SDS_P2;PMS_P1;PMS_P2;Temp;Humidity;BMP_temperature;BMP_pressure;BME280_temperature;BME280_humidity;BME280_pressure;Samples;Min_cycle;Max_cycle;Signal;HPM_P1;HPM_P2
2021/11/21 00:01:06;;;;;;;;;;;4.90;99.90;;;;;;5095995;28;19926;-87
2021/11/21 00:03:31;;;;;;;;;;;5.00;99.90;;;;;;5095893;28;19907;-87
2021/11/21 00:05:57;;;;;;;;;;;5.10;99.90;;;;;;5095865;28;19904;-87
2021/11/21 00:08:23;;;;;;;;;;;5.20;99.90;;;;;;5095801;28;19908;-87
2021/11/21 00:10:48;;;;;;;;;;;5.10;99.90;;;;;;5095918;28;19910;-86
2021/11/21 00:13:14;;;;;;;;;;;5.10;99.90;;;;;;5114084;28;20260;-86
2021/11/21 00:15:41;;;;;;;;;;;4.70;99.90;;;;;;5095781;28;19962;-87
2021/11/21 00:18:07;;;;;;;;;;;4.80;99.90;;;;;;5114219;28;19999;-87
2021/11/21 00:20:33;;;;;;;;;;;4.90;99.90;;;;;;5102009;28;19935;-87
2021/11/21 00:22:59;;;;;;;;;;;4.80;99.90;;;;;;5115851;28;19916;-85
2021/11/21 00:25:24;;;;;;;;;;;4.80;99.90;;;;;;5108867;28;19904;-87
2021/11/21 00:27:50;;;;;;;;;;;4.90;99.90;;;;;;5097980;28;19904;-87
2021/11/21 00:30:16;;;;;;;;;;;4.80;99.90;;;;;;5096625;28;19934;-87
2021/11/21 00:32:41;;;;;;;;;;;4.90;99.90;;;;;;5096017;28;19954;-87
2021/11/21 00:35:07;;;;;;;;;;;5.10;99.90;;;;;;5095835;28;20422;-87
2021/11/21 00:37:32;;;;;;;;;;;5.10;99.90;;;;;;5113894;28;19995;-87
2021/11/21 00:39:58;;;;;;;;;;;5.00;99.90;;;;;;5096676;28;19940;-87
2021/11/21 00:42:24;;;;;;;;;;;4.90;99.90;;;;;;5099697;28;19929;-87
2021/11/21 00:44:50;;;;;;;;;;;4.70;99.90;;;;;;5099681;28;19930;-87
2021/11/21 00:47:15;;;;;;;;;;;4.50;99.90;;;;;;5099864;28;20263;-87
2021/11/21 00:49:42;;;;;;;;;;;4.30;99.90;;;;;;5099507;28;19907;-86
2021/11/21 00:52:08;;;;;;;;;;;4.50;99.90;;;;;;5099467;28;19911;-87
2021/11/21 00:57:08;;;;;;;;;;;4.80;99.90;;;;;;5117724;28;19926;-86
2021/11/21 00:59:34;;;;;;;;;;;4.70;99.90;;;;;;5117775;28;19908;-87
2021/11/21 01:02:01;;;;;;;;;;;4.80;99.90;;;;;;5099823;28;19910;-87
2021/11/21 01:04:27;;;;;;;;;;;4.90;99.90;;;;;;5099203;28;19907;-87
2021/11/21 01:06:52;;;;;;;;;;;4.90;99.90;;;;;;5099173;28;19915;-86
2021/11/21 01:09:23;;;;;;;;;;;4.60;99.90;;;;;;5117465;28;19904;-87
2021/11/21 01:11:49;;;;;;;;;;;4.40;99.90;;;;;;5117465;28;20318;-87
2021/11/21 01:14:14;;;;;;;;;;;4.60;99.90;;;;;;5117474;28;19994;-87
2021/11/21 01:16:40;;;;;;;;;;;4.80;99.90;;;;;;5099602;28;19955;-87
2021/11/21 01:19:06;;;;;;;;;;;4.70;99.90;;;;;;5098926;28;19911;-87
2021/11/21 01:21:31;;;;;;;;;;;4.70;99.90;;;;;;5098813;28;19904;-87
2021/11/21 01:23:57;;;;;;;;;;;4.60;99.90;;;;;;5098610;28;19960;-86
2021/11/21 01:26:22;;;;;;;;;;;4.40;99.90;;;;;;5098862;28;20274;-87
2021/11/21 01:28:48;;;;;;;;;;;4.50;99.90;;;;;;5117134;28;19904;-87
2021/11/21 01:31:14;;;;;;;;;;;4.50;99.90;;;;;;5098710;28;20384;-87
2021/11/21 01:33:39;;;;;;;;;;;4.30;99.90;;;;;;5098684;28;20002;-87
2021/11/21 01:36:05;;;;;;;;;;;4.20;99.90;;;;;;5098664;28;19998;-87
2021/11/21 01:38:31;;;;;;;;;;;4.10;99.90;;;;;;5098561;28;19911;-87
2021/11/21 01:40:57;;;;;;;;;;;4.10;99.90;;;;;;5098554;28;19944;-86
2021/11/21 01:43:23;;;;;;;;;;;4.00;99.90;;;;;;5098429;28;20403;-86
2021/11/21 01:45:49;;;;;;;;;;;4.00;99.90;;;;;;5098624;28;19969;-87
2021/11/21 01:48:14;;;;;;;;;;;4.10;99.90;;;;;;5098438;28;19904;-87
2021/11/21 01:50:41;;;;;;;;;;;4.30;99.90;;;;;;5098338;28;19904;-87
2021/11/21 01:53:07;;;;;;;;;;;4.30;99.90;;;;;;5097373;28;19911;-87
2021/11/21 01:55:33;;;;;;;;;;;4.40;99.90;;;;;;5098312;28;19926;-87
2021/11/21 01:57:59;;;;;;;;;;;4.30;99.90;;;;;;5098825;28;19907;-87
2021/11/21 02:00:26;;;;;;;;;;;4.20;99.90;;;;;;5098419;28;20407;-87
2021/11/21 02:02:52;;;;;;;;;;;4.40;99.90;;;;;;5098036;28;19957;-87
2021/11/21 02:05:18;;;;;;;;;;;4.40;99.90;;;;;;5098145;28;20355;-86
2021/11/21 02:07:46;;;;;;;;;;;4.50;99.90;;;;;;5098090;28;20041;-87
2021/11/21 02:10:12;;;;;;;;;;;4.50;99.90;;;;;;5098254;28;20323;-87
2021/11/21 02:12:38;;;;;;;;;;;4.20;99.90;;;;;;5097940;28;19904;-86
2021/11/21 02:15:07;;;;;;;;;;;4.10;99.90;;;;;;5097847;28;19914;-87
2021/11/21 02:17:33;;;;;;;;;;;4.10;99.90;;;;;;5097804;28;19949;-87
2021/11/21 02:20:02;;;;;;;;;;;4.10;99.90;;;;;;5098176;28;19908;-87
2021/11/21 02:22:27;;;;;;;;;;;4.20;99.90;;;;;;5097413;28;19920;-86
2021/11/21 02:24:53;;;;;;;;;;;4.10;99.90;;;;;;5097724;28;19914;-87
2021/11/21 02:27:23;;;;;;;;;;;4.10;99.90;;;;;;5098001;28;20350;-87
2021/11/21 02:29:48;;;;;;;;;;;4.20;99.90;;;;;;5098000;28;20359;-87
2021/11/21 02:32:14;;;;;;;;;;;4.10;99.90;;;;;;5113082;28;19939;-86
2021/11/21 02:34:39;;;;;;;;;;;4.30;99.90;;;;;;5118972;28;19971;-86
2021/11/21 02:37:06;;;;;;;;;;;4.50;99.90;;;;;;5105250;28;19946;-87
2021/11/21 02:39:31;;;;;;;;;;;4.50;99.90;;;;;;5099342;28;19910;-87
2021/11/21 02:41:57;;;;;;;;;;;4.50;99.90;;;;;;5098205;28;19931;-87
2021/11/21 02:44:26;;;;;;;;;;;4.60;99.90;;;;;;5097386;28;19907;-86
2021/11/21 02:46:52;;;;;;;;;;;4.50;99.90;;;;;;5098066;28;20449;-87
2021/11/21 02:49:17;;;;;;;;;;;4.50;99.90;;;;;;5097422;28;19908;-86
2021/11/21 02:51:43;;;;;;;;;;;4.40;99.90;;;;;;5115713;28;19915;-87
2021/11/21 02:54:08;;;;;;;;;;;4.30;99.90;;;;;;5097081;28;19903;-87
2021/11/21 02:56:34;;;;;;;;;;;4.10;99.90;;;;;;5115556;28;19984;-87
2021/11/21 02:59:00;;;;;;;;;;;4.20;99.90;;;;;;5115261;28;19904;-87
2021/11/21 03:01:26;;;;;;;;;;;4.20;99.90;;;;;;5096904;28;20323;-87
2021/11/21 03:03:52;;;;;;;;;;;4.50;99.90;;;;;;5115014;28;19908;-87
2021/11/21 03:06:17;;;;;;;;;;;4.40;99.90;;;;;;5096826;28;19904;-87
2021/11/21 03:08:43;;;;;;;;;;;4.50;99.90;;;;;;5115125;28;19908;-86
2021/11/21 03:11:17;;;;;;;;;;;4.60;99.90;;;;;;5097389;28;19904;-87
2021/11/21 03:13:43;;;;;;;;;;;4.50;99.90;;;;;;5096672;28;20267;-86
2021/11/21 03:16:09;;;;;;;;;;;4.30;99.90;;;;;;5096628;28;19904;-87
2021/11/21 03:18:35;;;;;;;;;;;4.20;99.90;;;;;;5114907;28;19911;-86
2021/11/21 03:21:00;;;;;;;;;;;4.00;99.90;;;;;;5096592;28;19952;-86
2021/11/21 03:23:26;;;;;;;;;;;3.90;99.90;;;;;;5114546;28;20283;-87
2021/11/21 03:25:51;;;;;;;;;;;3.90;99.90;;;;;;5096888;28;19970;-87
2021/11/21 03:28:17;;;;;;;;;;;3.70;99.90;;;;;;5096469;28;19904;-86
2021/11/21 03:30:42;;;;;;;;;;;4.10;99.90;;;;;;5096484;28;19907;-87
2021/11/21 03:33:09;;;;;;;;;;;4.10;99.90;;;;;;5096500;28;20044;-87
2021/11/21 03:35:34;;;;;;;;;;;4.10;99.90;;;;;;5096419;28;20251;-87
2021/11/21 03:38:01;;;;;;;;;;;4.40;99.90;;;;;;5096431;28;19933;-87
2021/11/21 03:40:26;;;;;;;;;;;4.50;99.90;;;;;;5096257;28;19904;-86
2021/11/21 03:42:52;;;;;;;;;;;4.70;99.90;;;;;;5096167;28;20002;-87
2021/11/21 03:45:18;;;;;;;;;;;4.50;99.90;;;;;;5096216;28;19904;-87
2021/11/21 03:47:44;;;;;;;;;;;4.50;99.90;;;;;;5114479;28;20010;-87
2021/11/21 03:50:12;;;;;;;;;;;4.40;99.90;;;;;;5096124;28;19948;-86
2021/11/21 03:52:39;;;;;;;;;;;4.50;99.90;;;;;;5096216;28;20270;-87
2021/11/21 03:55:04;;;;;;;;;;;4.50;99.90;;;;;;5096025;28;19939;-86
2021/11/21 03:57:30;;;;;;;;;;;4.50;99.90;;;;;;5096005;28;19904;-86
2021/11/21 03:59:56;;;;;;;;;;;4.60;99.90;;;;;;5096266;28;20060;-86
2021/11/21 04:02:22;;;;;;;;;;;4.30;99.90;;;;;;5095906;28;19915;-86
2021/11/21 04:04:48;;;;;;;;;;;4.30;99.90;;;;;;5114215;28;19911;-86
2021/11/21 04:07:13;;;;;;;;;;;4.20;99.90;;;;;;5095907;28;19907;-87
2021/11/21 04:09:40;;;;;;;;;;;4.30;99.90;;;;;;5097114;28;19911;-86
2021/11/21 04:12:06;;;;;;;;;;;4.20;99.90;;;;;;5095805;28;19908;-86
2021/11/21 04:14:31;;;;;;;;;;;4.10;99.90;;;;;;5095618;28;19949;-86
2021/11/21 04:16:57;;;;;;;;;;;4.00;99.90;;;;;;5095864;28;19904;-87
2021/11/21 04:19:22;;;;;;;;;;;4.10;99.90;;;;;;5095722;28;19950;-86
2021/11/21 04:21:48;;;;;;;;;;;4.10;99.90;;;;;;5113875;28;20256;-87
2021/11/21 04:24:14;;;;;;;;;;;4.00;99.90;;;;;;5095521;28;19926;-87
2021/11/21 04:26:44;;;;;;;;;;;4.10;99.90;;;;;;5095689;28;19908;-87
2021/11/21 04:29:10;;;;;;;;;;;4.00;99.90;;;;;;5095668;28;19904;-87
2021/11/21 04:31:36;;;;;;;;;;;3.90;99.90;;;;;;5095603;28;19903;-86
2021/11/21 04:34:02;;;;;;;;;;;3.90;99.90;;;;;;5095550;28;19911;-86
2021/11/21 04:36:27;;;;;;;;;;;4.30;99.90;;;;;;5095565;28;19910;-87
2021/11/21 04:38:53;;;;;;;;;;;4.00;99.90;;;;;;5095568;28;19911;-86
2021/11/21 04:41:18;;;;;;;;;;;4.00;99.90;;;;;;5113817;28;19903;-86
2021/11/21 04:43:44;;;;;;;;;;;4.20;99.90;;;;;;5095473;28;19907;-86
2021/11/21 04:46:09;;;;;;;;;;;3.70;99.90;;;;;;5096311;28;19904;-87
2021/11/21 04:48:35;;;;;;;;;;;3.40;99.90;;;;;;5095512;28;19904;-86
2021/11/21 04:51:01;;;;;;;;;;;3.50;99.90;;;;;;5113633;28;19911;-86
2021/11/21 04:53:26;;;;;;;;;;;3.50;99.90;;;;;;5095475;28;19965;-87
2021/11/21 04:55:52;;;;;;;;;;;3.30;99.90;;;;;;5095469;28;19903;-87
2021/11/21 04:58:18;;;;;;;;;;;3.30;99.90;;;;;;5096184;28;19903;-86
2021/11/21 05:00:44;;;;;;;;;;;3.40;99.90;;;;;;5097660;28;20354;-86
2021/11/21 05:03:09;;;;;;;;;;;3.70;99.90;;;;;;5114851;28;19908;-87
2021/11/21 05:05:35;;;;;;;;;;;4.00;99.90;;;;;;5095772;28;20323;-87
2021/11/21 05:08:01;;;;;;;;;;;3.80;99.90;;;;;;5095302;28;20414;-86
2021/11/21 05:10:27;;;;;;;;;;;3.60;99.90;;;;;;5095357;28;19939;-87
2021/11/21 05:12:52;;;;;;;;;;;3.50;99.90;;;;;;5095291;28;19903;-87
2021/11/21 05:15:21;;;;;;;;;;;3.30;99.90;;;;;;5095188;28;19910;-87
2021/11/21 05:17:48;;;;;;;;;;;3.10;99.90;;;;;;5095128;28;19960;-86
2021/11/21 05:20:14;;;;;;;;;;;3.50;99.90;;;;;;5095155;28;19931;-86
2021/11/21 05:22:40;;;;;;;;;;;3.60;99.90;;;;;;5094869;28;19922;-87
2021/11/21 05:25:06;;;;;;;;;;;3.80;99.90;;;;;;5095203;28;20007;-87
2021/11/21 05:27:31;;;;;;;;;;;3.80;99.90;;;;;;5115176;28;20259;-87
2021/11/21 05:29:57;;;;;;;;;;;3.60;99.90;;;;;;5099617;28;19946;-87
2021/11/21 05:32:23;;;;;;;;;;;3.90;99.90;;;;;;5098642;28;19910;-86
2021/11/21 05:34:48;;;;;;;;;;;3.80;99.90;;;;;;5098671;28;19910;-86
2021/11/21 05:37:14;;;;;;;;;;;3.50;99.90;;;;;;5098679;28;19971;-87
2021/11/21 05:39:40;;;;;;;;;;;3.50;99.90;;;;;;5098543;28;19956;-87
2021/11/21 05:42:05;;;;;;;;;;;3.40;99.90;;;;;;5098431;28;20003;-86
2021/11/21 05:44:31;;;;;;;;;;;3.40;99.90;;;;;;5098568;28;19911;-86
2021/11/21 05:46:57;;;;;;;;;;;3.20;99.90;;;;;;5098417;28;20067;-86
2021/11/21 05:49:22;;;;;;;;;;;3.20;99.90;;;;;;5098674;28;19927;-87
2021/11/21 05:51:48;;;;;;;;;;;3.30;99.90;;;;;;5098346;28;19904;-87
2021/11/21 05:54:13;;;;;;;;;;;3.50;99.90;;;;;;5098274;28;19914;-87
2021/11/21 05:56:39;;;;;;;;;;;3.40;99.90;;;;;;5098246;28;19919;-86
2021/11/21 05:59:05;;;;;;;;;;;3.40;99.90;;;;;;5098184;28;19904;-87
2021/11/21 06:01:30;;;;;;;;;;;3.70;99.90;;;;;;5098118;28;19904;-87
2021/11/21 06:03:56;;;;;;;;;;;3.80;99.90;;;;;;5098108;28;19995;-86
2021/11/21 06:06:21;;;;;;;;;;;4.00;99.90;;;;;;5098116;28;19954;-86
2021/11/21 06:08:48;;;;;;;;;;;4.00;99.90;;;;;;5098069;28;19998;-87
2021/11/21 06:11:14;;;;;;;;;;;3.70;99.90;;;;;;5097873;28;19903;-87
2021/11/21 06:13:40;;;;;;;;;;;3.80;99.90;;;;;;5097946;28;20355;-87
2021/11/21 06:16:05;;;;;;;;;;;3.70;99.90;;;;;;5097871;28;19910;-87
2021/11/21 06:18:31;;;;;;;;;;;3.50;99.90;;;;;;5097885;28;20263;-87
2021/11/21 06:20:56;;;;;;;;;;;3.40;99.90;;;;;;5098121;28;20000;-87
2021/11/21 06:23:22;;;;;;;;;;;3.30;99.90;;;;;;5094029;28;20348;-87
2021/11/21 06:25:48;;;;;;;;;;;3.20;99.90;;;;;;5094348;28;19904;-87
2021/11/21 06:28:13;;;;;;;;;;;3.20;99.90;;;;;;5094269;28;20351;-86
2021/11/21 06:30:40;;;;;;;;;;;3.40;99.90;;;;;;5094343;28;19943;-87
2021/11/21 06:33:06;;;;;;;;;;;3.40;99.90;;;;;;5095390;28;19910;-87
2021/11/21 06:35:32;;;;;;;;;;;3.90;99.90;;;;;;5092987;28;19940;-87
2021/11/21 06:37:58;;;;;;;;;;;3.80;99.90;;;;;;5086630;28;19904;-86
2021/11/21 06:40:24;;;;;;;;;;;3.70;99.90;;;;;;5094340;28;19910;-87
2021/11/21 06:42:49;;;;;;;;;;;3.50;99.90;;;;;;5085796;28;19908;-86
2021/11/21 06:45:15;;;;;;;;;;;3.40;99.90;;;;;;5095152;28;20282;-87
2021/11/21 06:47:41;;;;;;;;;;;3.30;99.90;;;;;;5092832;28;19998;-87
2021/11/21 06:50:08;;;;;;;;;;;3.30;99.90;;;;;;5088076;28;19981;-87
2021/11/21 06:52:34;;;;;;;;;;;3.30;99.90;;;;;;5093726;28;19911;-86
2021/11/21 06:55:00;;;;;;;;;;;3.40;99.90;;;;;;5087041;28;19904;-87
2021/11/21 06:57:26;;;;;;;;;;;3.40;99.90;;;;;;5095142;28;19947;-87
2021/11/21 06:59:51;;;;;;;;;;;3.40;99.90;;;;;;5085845;28;20275;-87
2021/11/21 07:02:17;;;;;;;;;;;3.40;99.90;;;;;;5093605;28;19912;-87
2021/11/21 07:04:42;;;;;;;;;;;3.40;99.90;;;;;;5095152;28;19974;-86
2021/11/21 07:07:09;;;;;;;;;;;3.40;99.90;;;;;;5091898;28;19904;-87
2021/11/21 07:09:35;;;;;;;;;;;3.50;99.90;;;;;;5098016;28;19904;-87
2021/11/21 07:12:01;;;;;;;;;;;3.40;99.90;;;;;;5088279;28;20248;-87
2021/11/21 07:14:26;;;;;;;;;;;3.40;99.90;;;;;;5093674;28;20378;-86
2021/11/21 07:16:52;;;;;;;;;;;3.40;99.90;;;;;;5095100;28;19904;-87
2021/11/21 07:19:18;;;;;;;;;;;3.40;99.90;;;;;;5103158;28;19904;-86
2021/11/21 07:21:44;;;;;;;;;;;3.20;99.90;;;;;;5113887;28;19963;-85
2021/11/21 07:24:10;;;;;;;;;;;3.20;99.90;;;;;;5095971;28;19915;-86
2021/11/21 07:26:36;;;;;;;;;;;3.30;99.90;;;;;;5097001;28;19926;-86
2021/11/21 07:29:01;;;;;;;;;;;3.40;99.90;;;;;;5097610;28;19904;-87
2021/11/21 07:31:27;;;;;;;;;;;3.40;99.90;;;;;;5096580;28;19903;-87
2021/11/21 07:33:52;;;;;;;;;;;3.50;99.90;;;;;;5096526;28;19952;-86
2021/11/21 07:36:18;;;;;;;;;;;3.50;99.90;;;;;;5096562;28;19990;-87
2021/11/21 07:38:44;;;;;;;;;;;3.60;99.90;;;;;;5096354;28;19914;-87
2021/11/21 07:41:10;;;;;;;;;;;3.60;99.90;;;;;;5096424;28;19911;-86
2021/11/21 07:43:35;;;;;;;;;;;3.60;99.90;;;;;;5096215;28;19908;-87
2021/11/21 07:46:01;;;;;;;;;;;3.60;99.90;;;;;;5096334;28;20236;-87
2021/11/21 07:48:27;;;;;;;;;;;3.70;99.90;;;;;;5096428;28;19956;-87
2021/11/21 07:50:53;;;;;;;;;;;3.50;99.90;;;;;;5095891;28;19903;-87
2021/11/21 07:53:19;;;;;;;;;;;3.40;99.90;;;;;;5096249;28;20271;-87
2021/11/21 07:55:44;;;;;;;;;;;3.30;99.90;;;;;;5096174;28;19904;-86
2021/11/21 07:58:10;;;;;;;;;;;3.40;99.90;;;;;;5096172;28;19903;-87
2021/11/21 08:00:36;;;;;;;;;;;3.70;99.90;;;;;;5096105;28;19904;-87
2021/11/21 08:03:01;;;;;;;;;;;3.90;99.90;;;;;;5096022;28;19912;-87
2021/11/21 08:05:27;;;;;;;;;;;3.90;99.90;;;;;;5114245;28;19911;-87
2021/11/21 08:07:53;;;;;;;;;;;3.80;99.90;;;;;;5095986;28;19946;-87
2021/11/21 08:10:19;;;;;;;;;;;3.80;99.90;;;;;;5096075;28;19904;-87
2021/11/21 08:12:44;;;;;;;;;;;3.70;99.90;;;;;;5114162;28;20358;-87
2021/11/21 08:15:10;;;;;;;;;;;3.70;99.90;;;;;;5095911;28;20036;-87
2021/11/21 08:17:36;;;;;;;;;;;3.90;99.90;;;;;;5095351;28;19903;-87
2021/11/21 08:20:02;;;;;;;;;;;3.90;99.90;;;;;;5095939;28;19911;-87
2021/11/21 08:22:28;;;;;;;;;;;3.90;99.90;;;;;;5092049;28;20003;-87
2021/11/21 08:24:53;;;;;;;;;;;4.00;99.90;;;;;;5093724;28;19947;-87
2021/11/21 08:27:19;;;;;;;;;;;4.00;99.90;;;;;;5093662;28;19908;-87
2021/11/21 08:29:44;;;;;;;;;;;3.90;99.90;;;;;;5092067;28;20327;-87
2021/11/21 08:32:10;;;;;;;;;;;3.90;99.90;;;;;;5087116;28;19904;-87
2021/11/21 08:34:35;;;;;;;;;;;4.00;99.90;;;;;;5092069;28;19904;-87
2021/11/21 08:37:01;;;;;;;;;;;4.10;99.90;;;;;;5085798;28;19904;-87
2021/11/21 08:39:27;;;;;;;;;;;4.20;99.90;;;;;;5093527;28;19904;-87
2021/11/21 08:41:54;;;;;;;;;;;4.30;99.90;;;;;;5093529;28;20359;-87
2021/11/21 08:44:20;;;;;;;;;;;4.40;99.90;;;;;;5088430;28;20401;-87
2021/11/21 08:46:46;;;;;;;;;;;4.30;99.90;;;;;;5092137;28;19904;-87
2021/11/21 08:49:12;;;;;;;;;;;4.40;99.90;;;;;;5087170;28;20049;-87
2021/11/21 08:51:40;;;;;;;;;;;4.40;99.90;;;;;;5092177;28;19904;-87
2021/11/21 08:54:06;;;;;;;;;;;4.40;99.90;;;;;;5093327;28;19931;-87
2021/11/21 08:56:32;;;;;;;;;;;4.50;99.90;;;;;;5089896;28;20349;-87
2021/11/21 08:58:57;;;;;;;;;;;4.50;99.90;;;;;;5085090;28;19910;-87
2021/11/21 09:01:23;;;;;;;;;;;4.50;99.90;;;;;;5093704;28;19986;-87
2021/11/21 09:03:48;;;;;;;;;;;4.40;99.90;;;;;;5087511;28;19914;-87
2021/11/21 09:06:14;;;;;;;;;;;4.40;99.90;;;;;;5095936;28;19911;-88
2021/11/21 09:08:39;;;;;;;;;;;4.40;99.90;;;;;;5097426;28;19947;-88
2021/11/21 09:11:05;;;;;;;;;;;4.50;99.90;;;;;;5090054;28;19911;-88
2021/11/21 09:13:31;;;;;;;;;;;4.50;99.90;;;;;;5095875;28;20004;-88
2021/11/21 09:15:58;;;;;;;;;;;4.70;99.90;;;;;;5088787;28;19904;-88
2021/11/21 09:18:25;;;;;;;;;;;4.60;99.90;;;;;;5095889;28;19908;-89
2021/11/21 09:20:55;;;;;;;;;;;4.60;99.90;;;;;;5087837;28;19911;-89
2021/11/21 09:23:22;;;;;;;;;;;4.60;99.90;;;;;;5097621;28;19916;-89
2021/11/21 09:25:50;;;;;;;;;;;4.70;99.90;;;;;;5099614;28;19942;-88
2021/11/21 09:28:16;;;;;;;;;;;4.70;99.90;;;;;;5100645;28;20359;-89
2021/11/21 09:30:42;;;;;;;;;;;4.70;99.90;;;;;;5117993;28;19911;-89
2021/11/21 09:33:09;;;;;;;;;;;4.70;99.90;;;;;;5103161;28;19982;-89
2021/11/21 09:35:35;;;;;;;;;;;4.70;99.90;;;;;;5097093;28;20003;-89
2021/11/21 09:38:00;;;;;;;;;;;4.70;99.90;;;;;;5089765;28;20404;-89
2021/11/21 09:40:26;;;;;;;;;;;4.70;99.90;;;;;;5095814;28;20351;-89
2021/11/21 09:42:51;;;;;;;;;;;4.80;99.90;;;;;;5087596;28;20359;-89
2021/11/21 09:45:18;;;;;;;;;;;4.70;99.90;;;;;;5095414;28;19904;-89
2021/11/21 09:47:51;;;;;;;;;;;4.70;99.90;;;;;;5095275;28;19908;-89
2021/11/21 09:50:17;;;;;;;;;;;4.70;99.90;;;;;;5091029;28;19995;-88
2021/11/21 09:52:43;;;;;;;;;;;4.80;99.90;;;;;;5095317;28;20320;-89
2021/11/21 09:55:09;;;;;;;;;;;4.90;99.90;;;;;;5089735;28;19904;-89
2021/11/21 09:57:36;;;;;;;;;;;4.90;99.90;;;;;;5096357;28;19954;-89
2021/11/21 10:00:07;;;;;;;;;;;4.80;99.90;;;;;;5088527;28;19909;-89
2021/11/21 10:02:34;;;;;;;;;;;4.80;99.90;;;;;;5095574;28;20335;-88
2021/11/21 10:05:00;;;;;;;;;;;4.70;99.90;;;;;;5096214;28;19903;-89
2021/11/21 10:07:30;;;;;;;;;;;4.70;99.90;;;;;;5091894;28;20415;-89
2021/11/21 10:09:56;;;;;;;;;;;4.70;99.90;;;;;;5087391;28;19912;-89
2021/11/21 10:12:23;;;;;;;;;;;4.80;99.90;;;;;;5094002;28;19904;-89
2021/11/21 10:14:53;;;;;;;;;;;4.80;99.90;;;;;;5094770;28;19904;-88
2021/11/21 10:17:19;;;;;;;;;;;4.90;99.90;;;;;;5094904;28;19908;-89
2021/11/21 10:20:04;;;;;;;;;;;4.90;99.90;;;;;;5094813;28;19947;-88
2021/11/21 10:22:49;;;;;;;;;;;4.80;99.90;;;;;;5091556;28;19916;-89
2021/11/21 10:25:41;;;;;;;;;;;4.80;99.90;;;;;;5090112;28;19912;-88
2021/11/21 10:28:18;;;;;;;;;;;4.80;99.90;;;;;;5094474;28;19903;-89
2021/11/21 10:31:02;;;;;;;;;;;4.80;99.90;;;;;;5094509;28;19973;-89
2021/11/21 10:33:30;;;;;;;;;;;4.70;99.90;;;;;;5095878;28;19930;-89
2021/11/21 10:35:57;;;;;;;;;;;4.80;99.90;;;;;;5095624;28;20364;-89
2021/11/21 10:38:29;;;;;;;;;;;4.80;99.90;;;;;;5091145;28;19904;-89
2021/11/21 10:40:55;;;;;;;;;;;4.80;99.90;;;;;;5094411;28;19908;-89
2021/11/21 10:43:21;;;;;;;;;;;4.90;99.90;;;;;;5094190;28;20359;-90
2021/11/21 10:45:49;;;;;;;;;;;5.00;99.90;;;;;;5094204;28;19904;-89
2021/11/21 10:48:23;;;;;;;;;;;5.00;99.90;;;;;;5095561;28;19908;-89
2021/11/21 10:50:50;;;;;;;;;;;5.00;99.90;;;;;;5086131;28;19911;-89
2021/11/21 10:53:15;;;;;;;;;;;5.00;99.90;;;;;;5094462;28;19999;-89
2021/11/21 10:55:41;;;;;;;;;;;5.10;99.90;;;;;;5094349;28;19987;-89
2021/11/21 10:58:18;;;;;;;;;;;5.10;99.90;;;;;;5095674;28;19908;-89
2021/11/21 11:00:54;;;;;;;;;;;5.30;99.90;;;;;;5094297;28;20271;-90
2021/11/21 11:03:21;;;;;;;;;;;5.30;99.90;;;;;;5090373;28;19912;-89
2021/11/21 11:05:46;;;;;;;;;;;5.20;99.90;;;;;;5093906;28;19904;-89
2021/11/21 11:08:23;;;;;;;;;;;5.20;99.90;;;;;;5088909;28;20264;-89
2021/11/21 11:10:49;;;;;;;;;;;5.20;99.90;;;;;;5094989;28;19956;-89
2021/11/21 11:13:15;;;;;;;;;;;5.20;99.90;;;;;;5094372;28;19915;-88
2021/11/21 11:15:43;;;;;;;;;;;5.20;99.90;;;;;;5094718;28;19987;-89
2021/11/21 11:18:12;;;;;;;;;;;5.30;99.90;;;;;;5088251;28;19904;-89
2021/11/21 11:20:43;;;;;;;;;;;5.40;99.90;;;;;;5093703;28;19962;-89
2021/11/21 11:23:09;;;;;;;;;;;5.40;99.90;;;;;;5087907;28;19945;-89
2021/11/21 11:25:36;;;;;;;;;;;5.30;99.90;;;;;;5093595;28;20358;-89
2021/11/21 11:28:09;;;;;;;;;;;5.30;99.90;;;;;;5086952;28;19950;-89
2021/11/21 11:30:36;;;;;;;;;;;5.30;99.90;;;;;;5093526;28;19915;-89
2021/11/21 11:33:05;;;;;;;;;;;5.30;99.90;;;;;;5087482;28;20381;-89
2021/11/21 11:35:32;;;;;;;;;;;5.10;99.90;;;;;;5095444;28;19904;-89
2021/11/21 11:38:05;;;;;;;;;;;5.00;99.90;;;;;;5087539;28;19904;-89
2021/11/21 11:40:38;;;;;;;;;;;5.10;99.90;;;;;;5106203;28;19904;-89
2021/11/21 11:43:16;;;;;;;;;;;5.10;99.90;;;;;;5105679;28;19967;-88
2021/11/21 11:45:43;;;;;;;;;;;5.20;99.90;;;;;;5098859;28;19957;-88
2021/11/21 11:48:27;;;;;;;;;;;5.20;99.90;;;;;;5089368;28;19911;-88
2021/11/21 11:50:53;;;;;;;;;;;5.20;99.90;;;;;;5094640;28;19904;-88
2021/11/21 11:53:35;;;;;;;;;;;5.20;99.90;;;;;;5088980;28;19904;-89
2021/11/21 11:56:16;;;;;;;;;;;5.20;99.90;;;;;;5094137;28;19909;-88
2021/11/21 11:58:58;;;;;;;;;;;5.20;99.90;;;;;;5092031;28;19911;-88
2021/11/21 12:01:39;;;;;;;;;;;5.10;99.90;;;;;;5089425;28;20355;-88
2021/11/21 12:04:05;;;;;;;;;;;5.10;99.90;;;;;;5086669;28;19912;-88
2021/11/21 12:06:36;;;;;;;;;;;5.10;99.90;;;;;;5093116;28;19904;-88
2021/11/21 12:09:21;;;;;;;;;;;5.20;99.90;;;;;;5086297;28;19947;-88
2021/11/21 12:11:52;;;;;;;;;;;5.20;99.90;;;;;;5092604;28;19911;-88
2021/11/21 12:14:24;;;;;;;;;;;5.30;99.90;;;;;;5088369;28;19949;-88
2021/11/21 12:16:57;;;;;;;;;;;5.30;99.90;;;;;;5092505;28;19904;-88
2021/11/21 12:19:41;;;;;;;;;;;5.30;99.90;;;;;;5092537;28;19911;-87
2021/11/21 12:24:51;;;;;;;;;;;5.20;99.90;;;;;;5106063;28;19903;-89
2021/11/21 12:27:22;;;;;;;;;;;5.10;99.90;;;;;;5095823;28;19904;-88
2021/11/21 12:30:03;;;;;;;;;;;5.10;99.90;;;;;;5095718;28;19903;-88
2021/11/21 12:32:30;;;;;;;;;;;5.00;99.90;;;;;;5096660;28;20423;-88
2021/11/21 12:34:56;;;;;;;;;;;5.10;99.90;;;;;;5095701;28;19911;-88
2021/11/21 12:37:23;;;;;;;;;;;5.10;99.90;;;;;;5099251;28;19904;-88
2021/11/21 12:39:50;;;;;;;;;;;5.00;99.90;;;;;;5099935;28;19903;-88
2021/11/21 12:42:17;;;;;;;;;;;5.10;99.90;;;;;;5099770;28;19904;-88
2021/11/21 12:44:43;;;;;;;;;;;5.10;99.90;;;;;;5099905;28;19998;-88
2021/11/21 12:47:09;;;;;;;;;;;5.10;99.90;;;;;;5099716;28;19903;-88
2021/11/21 12:49:37;;;;;;;;;;;5.00;99.90;;;;;;5099727;28;20373;-88
2021/11/21 12:52:07;;;;;;;;;;;5.10;99.90;;;;;;5099729;28;19908;-88
2021/11/21 12:54:33;;;;;;;;;;;5.00;99.90;;;;;;5099673;28;20420;-88
2021/11/21 12:56:59;;;;;;;;;;;4.90;99.90;;;;;;5099649;28;20269;-89
2021/11/21 12:59:43;;;;;;;;;;;5.00;99.90;;;;;;5099442;28;19907;-88
2021/11/21 13:02:11;;;;;;;;;;;5.00;99.90;;;;;;5117772;28;19934;-88
2021/11/21 13:04:47;;;;;;;;;;;5.10;99.90;;;;;;5117867;28;20002;-88
2021/11/21 13:07:25;;;;;;;;;;;5.10;99.90;;;;;;5099908;28;20283;-88
2021/11/21 13:10:09;;;;;;;;;;;5.20;99.90;;;;;;5099349;28;19904;-88
2021/11/21 13:12:39;;;;;;;;;;;5.10;99.90;;;;;;5099290;28;20316;-88
2021/11/21 13:15:08;;;;;;;;;;;5.20;99.90;;;;;;5099082;28;19914;-89
2021/11/21 13:17:34;;;;;;;;;;;5.20;99.90;;;;;;5117707;28;19915;-88
2021/11/21 13:20:04;;;;;;;;;;;5.10;99.90;;;;;;5117667;28;20388;-88
2021/11/21 13:23:05;;;;;;;;;;;5.20;99.90;;;;;;5095384;28;20042;-89
2021/11/21 13:25:47;;;;;;;;;;;5.20;99.90;;;;;;4979235;28;19905;-88
2021/11/21 13:28:29;;;;;;;;;;;5.10;99.90;;;;;;5081274;28;19908;-88
2021/11/21 13:31:05;;;;;;;;;;;5.10;99.90;;;;;;5095631;28;20314;-87
2021/11/21 13:33:36;;;;;;;;;;;5.00;99.90;;;;;;5095455;28;19904;-88
2021/11/21 13:36:03;;;;;;;;;;;5.00;99.90;;;;;;5089049;28;20037;-88
2021/11/21 13:38:29;;;;;;;;;;;5.00;99.90;;;;;;5095442;28;19904;-88
2021/11/21 13:40:56;;;;;;;;;;;5.00;99.90;;;;;;5088020;28;19958;-87
2021/11/21 13:43:32;;;;;;;;;;;5.10;99.90;;;;;;5095193;28;19908;-88
2021/11/21 13:45:58;;;;;;;;;;;5.20;99.90;;;;;;5096217;28;19915;-88
2021/11/21 13:48:27;;;;;;;;;;;5.00;99.90;;;;;;5095488;28;19904;-88
2021/11/21 13:50:53;;;;;;;;;;;5.00;99.90;;;;;;5092718;28;19904;-88
2021/11/21 13:53:19;;;;;;;;;;;5.10;99.90;;;;;;5116592;28;19975;-88
2021/11/21 13:55:44;;;;;;;;;;;5.00;99.90;;;;;;5112379;28;20379;-88
2021/11/21 13:58:24;;;;;;;;;;;5.00;99.90;;;;;;5091787;28;19998;-88
2021/11/21 14:00:49;;;;;;;;;;;5.10;99.90;;;;;;5096198;28;19904;-88
2021/11/21 14:03:18;;;;;;;;;;;5.10;99.90;;;;;;5095608;28;19915;-88
2021/11/21 14:05:46;;;;;;;;;;;5.00;99.90;;;;;;5096532;28;19915;-88
2021/11/21 14:08:12;;;;;;;;;;;5.00;99.90;;;;;;5089781;28;19999;-89
2021/11/21 14:10:38;;;;;;;;;;;5.00;99.90;;;;;;5094834;28;20371;-88
2021/11/21 14:13:15;;;;;;;;;;;5.00;99.90;;;;;;5088873;28;19910;-88
2021/11/21 14:15:41;;;;;;;;;;;5.00;99.90;;;;;;5094688;28;19911;-88
2021/11/21 14:18:07;;;;;;;;;;;4.90;99.90;;;;;;5088918;28;19991;-88
2021/11/21 14:20:43;;;;;;;;;;;5.00;99.90;;;;;;5094599;28;20340;-87
2021/11/21 14:23:29;;;;;;;;;;;5.00;99.90;;;;;;5088752;28;19923;-88
2021/11/21 14:25:56;;;;;;;;;;;5.10;99.90;;;;;;5095856;28;19929;-88
2021/11/21 14:28:35;;;;;;;;;;;5.00;99.90;;;;;;5090884;28;19930;-88
2021/11/21 14:31:08;;;;;;;;;;;5.00;99.90;;;;;;5094889;28;19904;-88
2021/11/21 14:33:37;;;;;;;;;;;4.90;99.90;;;;;;5095370;28;19908;-88
2021/11/21 14:36:12;;;;;;;;;;;4.90;99.90;;;;;;5089123;28;19958;-88
2021/11/21 14:38:38;;;;;;;;;;;5.00;99.90;;;;;;5096893;28;19923;-88